sensor_id;sensor_type;location;lat;lon;timestamp;pressure;altitude;pressure_sealevel;temperature;humidity
57594;BME280;43423;46.510;6.686;2024-02-04T00:01:41;97714.97;;;6.93;76.47
57594;BME280;43423;46.510;6.686;2024-02-04T00:04:06;97722.50;;;6.89;76.50
57594;BME280;43423;46.510;6.686;2024-02-04T00:06:32;97727.22;;;6.69;78.22
57594;BME280;43423;46.510;6.686;2024-02-04T00:08:58;97722.03;;;6.75;78.33
57594;BME280;43423;46.510;6.686;2024-02-04T00:11:23;97708.63;;;6.80;77.12
57594;BME280;43423;46.510;6.686;2024-02-04T00:13:49;97711.00;;;6.78;78.15
57594;BME280;43423;46.510;6.686;2024-02-04T00:16:15;97710.47;;;6.67;78.91
57594;BME280;43423;46.510;6.686;2024-02-04T00:18:41;97705.69;;;6.71;77.97
57594;BME280;43423;46.510;6.686;2024-02-04T00:21:06;97707.59;;;6.74;77.83
57594;BME280;43423;46.510;6.686;2024-02-04T00:23:32;97706.41;;;6.75;78.27
57594;BME280;43423;46.510;6.686;2024-02-04T00:25:57;97692.81;;;6.71;77.48
57594;BME280;43423;46.510;6.686;2024-02-04T00:28:23;97701.06;;;6.68;77.82
57594;BME280;43423;46.510;6.686;2024-02-04T00:30:49;97694.84;;;6.67;78.01
57594;BME280;43423;46.510;6.686;2024-02-04T00:33:16;97702.59;;;6.69;77.51
57594;BME280;43423;46.510;6.686;2024-02-04T00:35:41;97702.25;;;6.67;79.24
57594;BME280;43423;46.510;6.686;2024-02-04T00:38:08;97703.31;;;6.73;78.99
57594;BME280;43423;46.510;6.686;2024-02-04T00:40:34;97695.94;;;6.70;77.88
57594;BME280;43423;46.510;6.686;2024-02-04T00:43:00;97705.97;;;6.77;77.09
57594;BME280;43423;46.510;6.686;2024-02-04T00:45:26;97703.22;;;6.77;77.52
57594;BME280;43423;46.510;6.686;2024-02-04T00:47:52;97705.47;;;6.82;77.44
57594;BME280;43423;46.510;6.686;2024-02-04T00:50:17;97701.69;;;6.76;77.52
57594;BME280;43423;46.510;6.686;2024-02-04T00:52:43;97702.59;;;6.69;77.42
57594;BME280;43423;46.510;6.686;2024-02-04T00:55:09;97706.88;;;6.70;76.89
57594;BME280;43423;46.510;6.686;2024-02-04T00:57:34;97701.50;;;6.66;76.44
57594;BME280;43423;46.510;6.686;2024-02-04T01:00:00;97700.22;;;6.71;76.05
57594;BME280;43423;46.510;6.686;2024-02-04T01:02:26;97701.31;;;6.57;77.21
57594;BME280;43423;46.510;6.686;2024-02-04T01:04:51;97711.31;;;6.64;77.97
57594;BME280;43423;46.510;6.686;2024-02-04T01:07:17;97728.41;;;6.68;78.30
57594;BME280;43423;46.510;6.686;2024-02-04T01:09:43;97731.00;;;6.75;77.45
57594;BME280;43423;46.510;6.686;2024-02-04T01:12:08;97721.94;;;6.78;76.47
57594;BME280;43423;46.510;6.686;2024-02-04T01:14:34;97726.50;;;6.85;76.33
57594;BME280;43423;46.510;6.686;2024-02-04T01:17:00;97729.66;;;6.83;76.37
57594;BME280;43423;46.510;6.686;2024-02-04T01:19:25;97728.88;;;6.83;75.85
57594;BME280;43423;46.510;6.686;2024-02-04T01:21:51;97718.88;;;6.76;75.87
57594;BME280;43423;46.510;6.686;2024-02-04T01:24:17;97718.09;;;6.76;76.02
57594;BME280;43423;46.510;6.686;2024-02-04T01:26:42;97724.69;;;6.78;76.76
57594;BME280;43423;46.510;6.686;2024-02-04T01:29:08;97718.88;;;6.76;76.28
57594;BME280;43423;46.510;6.686;2024-02-04T01:31:34;97720.41;;;6.77;76.56
57594;BME280;43423;46.510;6.686;2024-02-04T01:33:59;97724.75;;;6.75;76.69
57594;BME280;43423;46.510;6.686;2024-02-04T01:36:25;97732.19;;;6.54;78.78
57594;BME280;43423;46.510;6.686;2024-02-04T01:38:51;97733.28;;;6.17;80.52
57594;BME280;43423;46.510;6.686;2024-02-04T01:41:16;97736.25;;;6.46;78.71
57594;BME280;43423;46.510;6.686;2024-02-04T01:43:42;97741.38;;;6.44;78.92
57594;BME280;43423;46.510;6.686;2024-02-04T01:46:08;97738.97;;;5.79;82.97
57594;BME280;43423;46.510;6.686;2024-02-04T01:48:35;97732.44;;;6.20;79.98
57594;BME280;43423;46.510;6.686;2024-02-04T01:51:01;97730.34;;;6.48;77.74
57594;BME280;43423;46.510;6.686;2024-02-04T01:53:28;97726.13;;;6.23;79.58
57594;BME280;43423;46.510;6.686;2024-02-04T01:55:55;97721.19;;;6.38;78.92
57594;BME280;43423;46.510;6.686;2024-02-04T01:58:22;97702.06;;;6.58;78.17
57594;BME280;43423;46.510;6.686;2024-02-04T02:00:49;97691.97;;;6.55;77.88
57594;BME280;43423;46.510;6.686;2024-02-04T02:03:16;97684.28;;;6.50;79.31
57594;BME280;43423;46.510;6.686;2024-02-04T02:05:42;97676.41;;;6.52;77.84
57594;BME280;43423;46.510;6.686;2024-02-04T02:08:08;97686.50;;;6.55;77.35
57594;BME280;43423;46.510;6.686;2024-02-04T02:10:34;97692.19;;;6.44;79.16
57594;BME280;43423;46.510;6.686;2024-02-04T02:13:11;97684.84;;;6.41;80.23
57594;BME280;43423;46.510;6.686;2024-02-04T02:15:48;97696.03;;;6.27;81.60
57594;BME280;43423;46.510;6.686;2024-02-04T02:18:23;97696.25;;;6.36;80.63
57594;BME280;43423;46.510;6.686;2024-02-04T02:24:32;97685.84;;;6.07;81.71
57594;BME280;43423;46.510;6.686;2024-02-04T02:26:58;97694.66;;;5.95;83.16
57594;BME280;43423;46.510;6.686;2024-02-04T02:29:24;97689.59;;;6.17;80.61
57594;BME280;43423;46.510;6.686;2024-02-04T02:31:50;97691.50;;;5.97;82.18
57594;BME280;43423;46.510;6.686;2024-02-04T02:34:16;97682.56;;;6.16;80.30
57594;BME280;43423;46.510;6.686;2024-02-04T02:36:50;97696.94;;;6.20;80.29
57594;BME280;43423;46.510;6.686;2024-02-04T02:39:25;97692.53;;;6.26;80.59
57594;BME280;43423;46.510;6.686;2024-02-04T02:41:55;97680.41;;;6.27;81.55
57594;BME280;43423;46.510;6.686;2024-02-04T02:44:23;97680.22;;;6.18;82.05
57594;BME280;43423;46.510;6.686;2024-02-04T02:46:50;97678.16;;;6.02;83.22
57594;BME280;43423;46.510;6.686;2024-02-04T02:49:16;97670.16;;;5.92;83.93
57594;BME280;43423;46.510;6.686;2024-02-04T02:51:42;97672.56;;;6.09;83.38
57594;BME280;43423;46.510;6.686;2024-02-04T02:54:07;97670.34;;;6.24;81.81
57594;BME280;43423;46.510;6.686;2024-02-04T02:56:33;97670.69;;;6.26;82.63
57594;BME280;43423;46.510;6.686;2024-02-04T02:58:59;97670.34;;;6.24;82.44
57594;BME280;43423;46.510;6.686;2024-02-04T03:01:24;97663.69;;;6.25;82.87
57594;BME280;43423;46.510;6.686;2024-02-04T03:03:50;97662.28;;;6.17;82.98
57594;BME280;43423;46.510;6.686;2024-02-04T03:06:16;97666.03;;;6.23;82.00
57594;BME280;43423;46.510;6.686;2024-02-04T03:08:41;97664.47;;;6.26;81.62
57594;BME280;43423;46.510;6.686;2024-02-04T03:11:07;97665.38;;;6.19;81.74
57594;BME280;43423;46.510;6.686;2024-02-04T03:13:33;97669.28;;;6.18;82.18
57594;BME280;43423;46.510;6.686;2024-02-04T03:15:59;97665.69;;;6.21;80.99
57594;BME280;43423;46.510;6.686;2024-02-04T03:18:24;97671.81;;;6.09;82.31
57594;BME280;43423;46.510;6.686;2024-02-04T03:20:50;97679.91;;;6.12;81.88
57594;BME280;43423;46.510;6.686;2024-02-04T03:23:15;97679.06;;;5.96;83.03
57594;BME280;43423;46.510;6.686;2024-02-04T03:25:41;97672.28;;;6.04;82.37
57594;BME280;43423;46.510;6.686;2024-02-04T03:28:06;97689.00;;;5.82;82.90
57594;BME280;43423;46.510;6.686;2024-02-04T03:30:32;97684.88;;;5.98;81.33
57594;BME280;43423;46.510;6.686;2024-02-04T03:32:58;97686.16;;;5.89;81.94
57594;BME280;43423;46.510;6.686;2024-02-04T03:35:23;97693.81;;;5.75;84.51
57594;BME280;43423;46.510;6.686;2024-02-04T03:37:49;97699.03;;;5.89;83.56
57594;BME280;43423;46.510;6.686;2024-02-04T03:40:15;97699.34;;;5.95;82.56
57594;BME280;43423;46.510;6.686;2024-02-04T03:42:40;97700.13;;;5.95;83.72
57594;BME280;43423;46.510;6.686;2024-02-04T03:45:06;97696.22;;;5.96;82.43
57594;BME280;43423;46.510;6.686;2024-02-04T03:47:32;97699.34;;;5.95;82.89
57594;BME280;43423;46.510;6.686;2024-02-04T03:49:57;97702.50;;;5.93;82.78
57594;BME280;43423;46.510;6.686;2024-02-04T03:52:23;97704.31;;;5.76;85.14
57594;BME280;43423;46.510;6.686;2024-02-04T03:54:49;97706.09;;;5.86;83.73
57594;BME280;43423;46.510;6.686;2024-02-04T03:57:14;97695.31;;;5.56;84.58
57594;BME280;43423;46.510;6.686;2024-02-04T03:59:40;97706.22;;;5.29;87.42
57594;BME280;43423;46.510;6.686;2024-02-04T04:02:05;97714.75;;;5.08;90.94
57594;BME280;43423;46.510;6.686;2024-02-04T04:04:31;97712.91;;;4.70;95.20
57594;BME280;43423;46.510;6.686;2024-02-04T04:06:57;97711.16;;;4.53;100.00
57594;BME280;43423;46.510;6.686;2024-02-04T04:09:23;97717.22;;;4.98;99.94
57594;BME280;43423;46.510;6.686;2024-02-04T04:11:48;97720.03;;;5.18;99.12
57594;BME280;43423;46.510;6.686;2024-02-04T04:14:14;97727.72;;;5.50;98.96
57594;BME280;43423;46.510;6.686;2024-02-04T04:16:40;97742.69;;;5.15;98.30
57594;BME280;43423;46.510;6.686;2024-02-04T04:19:05;97755.81;;;5.24;98.57
57594;BME280;43423;46.510;6.686;2024-02-04T04:21:31;97751.53;;;5.50;95.25
57594;BME280;43423;46.510;6.686;2024-02-04T04:23:56;97761.97;;;5.55;95.77
57594;BME280;43423;46.510;6.686;2024-02-04T04:26:22;97762.78;;;5.79;92.41
57594;BME280;43423;46.510;6.686;2024-02-04T04:28:48;97759.69;;;5.77;92.74
57594;BME280;43423;46.510;6.686;2024-02-04T04:31:13;97764.19;;;5.87;92.94
57594;BME280;43423;46.510;6.686;2024-02-04T04:33:39;97765.44;;;5.82;92.37
57594;BME280;43423;46.510;6.686;2024-02-04T04:36:05;97769.78;;;5.80;92.26
57594;BME280;43423;46.510;6.686;2024-02-04T04:38:30;97767.03;;;5.80;91.08
57594;BME280;43423;46.510;6.686;2024-02-04T04:40:56;97772.19;;;5.74;90.51
57594;BME280;43423;46.510;6.686;2024-02-04T04:43:22;97770.66;;;5.73;88.76
57594;BME280;43423;46.510;6.686;2024-02-04T04:45:47;97772.53;;;5.76;89.49
57594;BME280;43423;46.510;6.686;2024-02-04T04:48:13;97772.44;;;5.83;87.36
57594;BME280;43423;46.510;6.686;2024-02-04T04:50:38;97778.78;;;5.77;87.74
57594;BME280;43423;46.510;6.686;2024-02-04T04:53:04;97775.66;;;5.78;91.06
57594;BME280;43423;46.510;6.686;2024-02-04T04:55:29;97780.63;;;5.83;91.07
57594;BME280;43423;46.510;6.686;2024-02-04T04:57:55;97781.34;;;5.87;92.00
57594;BME280;43423;46.510;6.686;2024-02-04T05:00:21;97774.03;;;5.81;91.37
57594;BME280;43423;46.510;6.686;2024-02-04T05:02:47;97763.00;;;5.65;91.51
57594;BME280;43423;46.510;6.686;2024-02-04T05:05:13;97759.06;;;5.66;91.01
57594;BME280;43423;46.510;6.686;2024-02-04T05:07:39;97759.72;;;5.73;89.24
57594;BME280;43423;46.510;6.686;2024-02-04T05:10:05;97752.91;;;5.62;88.99
57594;BME280;43423;46.510;6.686;2024-02-04T05:12:32;97758.47;;;5.54;88.66
57594;BME280;43423;46.510;6.686;2024-02-04T05:14:58;97759.94;;;5.59;88.71
57594;BME280;43423;46.510;6.686;2024-02-04T05:17:23;97756.66;;;5.44;90.05
57594;BME280;43423;46.510;6.686;2024-02-04T05:19:49;97747.28;;;5.22;91.53
57594;BME280;43423;46.510;6.686;2024-02-04T05:22:15;97759.66;;;5.53;88.95
57594;BME280;43423;46.510;6.686;2024-02-04T05:24:41;97762.44;;;5.50;89.11
57594;BME280;43423;46.510;6.686;2024-02-04T05:27:06;97753.06;;;5.51;89.62
57594;BME280;43423;46.510;6.686;2024-02-04T05:29:32;97749.97;;;5.49;88.65
57594;BME280;43423;46.510;6.686;2024-02-04T05:31:58;97746.13;;;5.46;89.30
57594;BME280;43423;46.510;6.686;2024-02-04T05:34:23;97735.88;;;5.54;87.97
57594;BME280;43423;46.510;6.686;2024-02-04T05:36:49;97752.59;;;5.56;87.79
57594;BME280;43423;46.510;6.686;2024-02-04T05:39:16;97748.84;;;5.46;88.61
57594;BME280;43423;46.510;6.686;2024-02-04T05:41:42;97743.78;;;5.45;88.64
57594;BME280;43423;46.510;6.686;2024-02-04T05:44:07;97748.09;;;5.46;88.41
57594;BME280;43423;46.510;6.686;2024-02-04T05:46:38;97739.91;;;5.46;88.56
57594;BME280;43423;46.510;6.686;2024-02-04T05:49:04;97746.00;;;5.26;90.08
57594;BME280;43423;46.510;6.686;2024-02-04T05:51:40;97735.25;;;5.43;91.48
57594;BME280;43423;46.510;6.686;2024-02-04T05:54:06;97748.69;;;5.57;90.43
57594;BME280;43423;46.510;6.686;2024-02-04T05:56:32;97753.69;;;5.62;91.50
57594;BME280;43423;46.510;6.686;2024-02-04T05:58:58;97745.38;;;5.69;93.57
57594;BME280;43423;46.510;6.686;2024-02-04T06:01:24;97740.28;;;5.71;96.63
57594;BME280;43423;46.510;6.686;2024-02-04T06:03:49;97739.09;;;5.72;100.00
57594;BME280;43423;46.510;6.686;2024-02-04T06:06:16;97731.59;;;5.76;100.00
57594;BME280;43423;46.510;6.686;2024-02-04T06:08:42;97741.28;;;5.81;100.00
57594;BME280;43423;46.510;6.686;2024-02-04T06:11:12;97742.53;;;6.00;100.00
57594;BME280;43423;46.510;6.686;2024-02-04T06:13:44;97744.16;;;5.97;100.00
57594;BME280;43423;46.510;6.686;2024-02-04T06:16:10;97740.06;;;6.09;100.00
57594;BME280;43423;46.510;6.686;2024-02-04T06:18:39;97734.44;;;5.46;100.00
57594;BME280;43423;46.510;6.686;2024-02-04T06:21:06;97741.53;;;5.40;100.00
57594;BME280;43423;46.510;6.686;2024-02-04T06:23:32;97741.69;;;5.79;100.00
57594;BME280;43423;46.510;6.686;2024-02-04T06:25:58;97747.72;;;5.94;100.00
57594;BME280;43423;46.510;6.686;2024-02-04T06:28:24;97753.00;;;6.05;100.00
57594;BME280;43423;46.510;6.686;2024-02-04T06:30:49;97761.91;;;6.09;100.00
57594;BME280;43423;46.510;6.686;2024-02-04T06:33:15;97757.44;;;6.19;100.00
57594;BME280;43423;46.510;6.686;2024-02-04T06:35:41;97756.69;;;6.18;100.00
57594;BME280;43423;46.510;6.686;2024-02-04T06:38:07;97752.69;;;6.23;100.00
57594;BME280;43423;46.510;6.686;2024-02-04T06:40:32;97757.38;;;6.22;100.00
57594;BME280;43423;46.510;6.686;2024-02-04T06:42:58;97764.16;;;6.14;100.00
57594;BME280;43423;46.510;6.686;2024-02-04T06:45:24;97759.88;;;6.13;100.00
57594;BME280;43423;46.510;6.686;2024-02-04T06:47:49;97758.34;;;6.12;100.00
57594;BME280;43423;46.510;6.686;2024-02-04T06:50:15;97749.84;;;6.06;100.00
57594;BME280;43423;46.510;6.686;2024-02-04T06:52:41;97750.44;;;6.18;100.00
57594;BME280;43423;46.510;6.686;2024-02-04T06:55:08;97746.56;;;6.15;100.00
57594;BME280;43423;46.510;6.686;2024-02-04T06:57:34;97752.88;;;6.12;100.00
57594;BME280;43423;46.510;6.686;2024-02-04T07:00:00;97749.81;;;6.10;100.00
57594;BME280;43423;46.510;6.686;2024-02-04T07:02:25;97741.94;;;6.12;100.00
57594;BME280;43423;46.510;6.686;2024-02-04T07:04:52;97748.69;;;6.27;100.00
57594;BME280;43423;46.510;6.686;2024-02-04T07:07:18;97746.09;;;6.20;100.00
57594;BME280;43423;46.510;6.686;2024-02-04T07:09:43;97754.47;;;6.33;100.00
57594;BME280;43423;46.510;6.686;2024-02-04T07:12:09;97756.00;;;6.34;100.00
57594;BME280;43423;46.510;6.686;2024-02-04T07:14:35;97751.13;;;6.22;100.00
57594;BME280;43423;46.510;6.686;2024-02-04T07:17:00;97759.03;;;6.16;100.00
57594;BME280;43423;46.510;6.686;2024-02-04T07:19:26;97756.81;;;6.11;100.00
57594;BME280;43423;46.510;6.686;2024-02-04T07:21:51;97744.84;;;6.25;100.00
57594;BME280;43423;46.510;6.686;2024-02-04T07:24:17;97744.56;;;5.96;100.00
57594;BME280;43423;46.510;6.686;2024-02-04T07:26:45;97748.16;;;5.93;100.00
57594;BME280;43423;46.510;6.686;2024-02-04T07:29:12;97745.16;;;6.07;100.00
57594;BME280;43423;46.510;6.686;2024-02-04T07:31:38;97739.44;;;6.21;100.00
57594;BME280;43423;46.510;6.686;2024-02-04T07:34:04;97747.75;;;6.14;100.00
57594;BME280;43423;46.510;6.686;2024-02-04T07:36:30;97751.94;;;5.99;100.00
57594;BME280;43423;46.510;6.686;2024-02-04T07:38:56;97755.13;;;6.17;100.00
57594;BME280;43423;46.510;6.686;2024-02-04T07:41:21;97763.06;;;6.08;100.00
57594;BME280;43423;46.510;6.686;2024-02-04T07:43:47;97754.59;;;6.26;100.00
57594;BME280;43423;46.510;6.686;2024-02-04T07:46:14;97760.59;;;6.17;100.00
57594;BME280;43423;46.510;6.686;2024-02-04T07:48:39;97762.78;;;6.26;100.00
57594;BME280;43423;46.510;6.686;2024-02-04T07:51:06;97766.75;;;6.21;100.00
57594;BME280;43423;46.510;6.686;2024-02-04T07:53:32;97761.28;;;6.21;100.00
57594;BME280;43423;46.510;6.686;2024-02-04T07:55:58;97766.28;;;6.26;100.00
57594;BME280;43423;46.510;6.686;2024-02-04T07:58:23;97763.69;;;6.19;100.00
57594;BME280;43423;46.510;6.686;2024-02-04T08:00:49;97769.13;;;6.42;100.00
57594;BME280;43423;46.510;6.686;2024-02-04T08:03:15;97777.91;;;6.30;100.00
57594;BME280;43423;46.510;6.686;2024-02-04T08:05:40;97783.91;;;5.98;100.00
57594;BME280;43423;46.510;6.686;2024-02-04T08:08:06;97787.84;;;6.21;100.00
57594;BME280;43423;46.510;6.686;2024-02-04T08:10:32;97788.72;;;6.14;100.00
57594;BME280;43423;46.510;6.686;2024-02-04T08:12:57;97793.38;;;6.17;100.00
57594;BME280;43423;46.510;6.686;2024-02-04T08:15:23;97795.72;;;6.15;100.00
57594;BME280;43423;46.510;6.686;2024-02-04T08:17:49;97800.16;;;6.09;100.00
57594;BME280;43423;46.510;6.686;2024-02-04T08:20:14;97806.63;;;5.92;100.00
57594;BME280;43423;46.510;6.686;2024-02-04T08:22:40;97805.34;;;6.00;100.00
57594;BME280;43423;46.510;6.686;2024-02-04T08:25:06;97799.41;;;6.05;100.00
57594;BME280;43423;46.510;6.686;2024-02-04T08:27:32;97799.09;;;5.99;100.00
57594;BME280;43423;46.510;6.686;2024-02-04T08:29:57;97807.78;;;5.94;100.00
57594;BME280;43423;46.510;6.686;2024-02-04T08:32:23;97798.28;;;5.75;100.00
57594;BME280;43423;46.510;6.686;2024-02-04T08:34:49;97805.22;;;5.56;100.00
57594;BME280;43423;46.510;6.686;2024-02-04T08:37:15;97807.09;;;5.86;100.00
57594;BME280;43423;46.510;6.686;2024-02-04T08:39:40;97805.34;;;6.00;100.00
57594;BME280;43423;46.510;6.686;2024-02-04T08:42:06;97792.06;;;6.02;100.00
57594;BME280;43423;46.510;6.686;2024-02-04T08:44:31;97800.38;;;5.95;100.00
57594;BME280;43423;46.510;6.686;2024-02-04T08:46:57;97803.81;;;5.99;100.00
57594;BME280;43423;46.510;6.686;2024-02-04T08:49:23;97802.56;;;6.03;100.00
57594;BME280;43423;46.510;6.686;2024-02-04T08:51:49;97804.03;;;6.08;100.00
57594;BME280;43423;46.510;6.686;2024-02-04T08:54:14;97792.16;;;6.41;100.00
57594;BME280;43423;46.510;6.686;2024-02-04T08:56:40;97800.50;;;6.11;100.00
57594;BME280;43423;46.510;6.686;2024-02-04T08:59:06;97796.91;;;6.14;100.00
57594;BME280;43423;46.510;6.686;2024-02-04T09:01:32;97796.00;;;6.01;100.00
57594;BME280;43423;46.510;6.686;2024-02-04T09:03:57;97785.56;;;6.15;100.00
57594;BME280;43423;46.510;6.686;2024-02-04T09:06:23;97796.75;;;6.01;100.00
57594;BME280;43423;46.510;6.686;2024-02-04T09:08:48;97779.72;;;5.90;100.00
57594;BME280;43423;46.510;6.686;2024-02-04T09:11:14;97786.66;;;5.98;100.00
57594;BME280;43423;46.510;6.686;2024-02-04T09:13:47;97783.63;;;5.93;100.00
57594;BME280;43423;46.510;6.686;2024-02-04T09:16:13;97788.84;;;6.07;100.00
57594;BME280;43423;46.510;6.686;2024-02-04T09:18:38;97785.66;;;6.12;100.00
57594;BME280;43423;46.510;6.686;2024-02-04T09:21:04;97796.34;;;6.26;100.00
57594;BME280;43423;46.510;6.686;2024-02-04T09:23:30;97789.97;;;6.33;100.00
57594;BME280;43423;46.510;6.686;2024-02-04T09:25:55;97798.63;;;6.28;100.00
57594;BME280;43423;46.510;6.686;2024-02-04T09:28:21;97796.22;;;6.33;100.00
57594;BME280;43423;46.510;6.686;2024-02-04T09:30:47;97788.59;;;6.21;100.00
57594;BME280;43423;46.510;6.686;2024-02-04T09:33:14;97786.75;;;6.14;100.00
57594;BME280;43423;46.510;6.686;2024-02-04T09:35:40;97779.94;;;6.26;100.00
57594;BME280;43423;46.510;6.686;2024-02-04T09:38:05;97781.06;;;6.29;100.00
57594;BME280;43423;46.510;6.686;2024-02-04T09:40:31;97786.00;;;6.57;100.00
57594;BME280;43423;46.510;6.686;2024-02-04T09:42:58;97786.16;;;6.70;100.00
57594;BME280;43423;46.510;6.686;2024-02-04T09:45:25;97794.03;;;6.88;100.00
57594;BME280;43423;46.510;6.686;2024-02-04T09:47:52;97785.25;;;6.77;100.00
57594;BME280;43423;46.510;6.686;2024-02-04T09:50:20;97783.50;;;6.66;100.00
57594;BME280;43423;46.510;6.686;2024-02-04T09:52:49;97787.47;;;6.42;100.00
57594;BME280;43423;46.510;6.686;2024-02-04T09:55:15;97786.28;;;6.43;100.00
57594;BME280;43423;46.510;6.686;2024-02-04T09:57:42;97783.97;;;6.41;100.00
57594;BME280;43423;46.510;6.686;2024-02-04T10:00:09;97790.53;;;6.44;100.00
57594;BME280;43423;46.510;6.686;2024-02-04T10:02:35;97788.09;;;6.50;100.00
57594;BME280;43423;46.510;6.686;2024-02-04T10:05:02;97784.56;;;6.29;100.00
57594;BME280;43423;46.510;6.686;2024-02-04T10:07:28;97783.00;;;6.52;100.00
57594;BME280;43423;46.510;6.686;2024-02-04T10:09:55;97782.63;;;6.50;100.00
57594;BME280;43423;46.510;6.686;2024-02-04T10:12:21;97777.94;;;6.70;100.00
57594;BME280;43423;46.510;6.686;2024-02-04T10:14:48;97782.22;;;6.71;100.00
57594;BME280;43423;46.510;6.686;2024-02-04T10:17:18;97783.47;;;6.86;100.00
57594;BME280;43423;46.510;6.686;2024-02-04T10:19:49;97779.16;;;6.89;100.00
57594;BME280;43423;46.510;6.686;2024-02-04T10:22:14;97778.31;;;6.72;100.00
57594;BME280;43423;46.510;6.686;2024-02-04T10:24:42;97782.38;;;6.84;100.00
57594;BME280;43423;46.510;6.686;2024-02-04T10:27:10;97791.25;;;7.08;100.00
57594;BME280;43423;46.510;6.686;2024-02-04T10:29:36;97782.19;;;7.11;100.00
57594;BME280;43423;46.510;6.686;2024-02-04T10:32:02;97782.84;;;6.98;100.00
57594;BME280;43423;46.510;6.686;2024-02-04T10:34:28;97777.78;;;7.17;100.00
57594;BME280;43423;46.510;6.686;2024-02-04T10:36:56;97784.44;;;7.16;100.00
57594;BME280;43423;46.510;6.686;2024-02-04T10:39:21;97790.66;;;7.36;100.00
57594;BME280;43423;46.510;6.686;2024-02-04T10:41:51;97781.72;;;7.52;100.00
57594;BME280;43423;46.510;6.686;2024-02-04T10:44:21;97787.97;;;7.85;100.00
57594;BME280;43423;46.510;6.686;2024-02-04T10:46:47;97789.50;;;8.35;100.00
57594;BME280;43423;46.510;6.686;2024-02-04T10:49:15;97778.69;;;8.28;100.00
57594;BME280;43423;46.510;6.686;2024-02-04T10:51:41;97791.38;;;8.54;100.00
57594;BME280;43423;46.510;6.686;2024-02-04T10:54:08;97784.09;;;9.18;100.00
57594;BME280;43423;46.510;6.686;2024-02-04T10:59:04;97785.00;;;9.41;98.88
57594;BME280;43423;46.510;6.686;2024-02-04T11:01:32;97777.63;;;9.63;96.39
57594;BME280;43423;46.510;6.686;2024-02-04T11:03:58;97778.19;;;9.58;95.97
57594;BME280;43423;46.510;6.686;2024-02-04T11:06:26;97782.47;;;9.59;97.23
57594;BME280;43423;46.510;6.686;2024-02-04T11:08:52;97770.50;;;9.28;99.37
57594;BME280;43423;46.510;6.686;2024-02-04T11:11:19;97771.38;;;9.25;99.48
57594;BME280;43423;46.510;6.686;2024-02-04T11:13:48;97769.19;;;8.49;100.00
57594;BME280;43423;46.510;6.686;2024-02-04T11:27:14;97754.50;;;7.94;100.00
57594;BME280;43423;46.510;6.686;2024-02-04T11:29:41;97743.31;;;7.72;100.00
57594;BME280;43423;46.510;6.686;2024-02-04T11:32:07;97743.75;;;7.70;100.00
57594;BME280;43423;46.510;6.686;2024-02-04T11:34:33;97748.00;;;7.88;100.00
57594;BME280;43423;46.510;6.686;2024-02-04T11:37:00;97736.72;;;7.86;100.00
57594;BME280;43423;46.510;6.686;2024-02-04T11:39:26;97732.28;;;7.92;100.00
57594;BME280;43423;46.510;6.686;2024-02-04T11:41:51;97719.91;;;8.45;100.00
57594;BME280;43423;46.510;6.686;2024-02-04T11:44:21;97718.94;;;8.81;100.00
57594;BME280;43423;46.510;6.686;2024-02-04T11:46:47;97717.66;;;8.98;100.00
57594;BME280;43423;46.510;6.686;2024-02-04T11:49:17;97698.72;;;8.75;100.00
57594;BME280;43423;46.510;6.686;2024-02-04T11:51:50;97708.13;;;9.03;100.00
57594;BME280;43423;46.510;6.686;2024-02-04T11:54:17;97703.38;;;8.78;100.00
57594;BME280;43423;46.510;6.686;2024-02-04T11:56:49;97706.00;;;8.81;100.00
57594;BME280;43423;46.510;6.686;2024-02-04T11:59:25;97710.38;;;8.91;100.00
57594;BME280;43423;46.510;6.686;2024-02-04T12:01:57;97695.47;;;8.92;100.00
57594;BME280;43423;46.510;6.686;2024-02-04T12:04:23;97702.31;;;9.01;100.00
57594;BME280;43423;46.510;6.686;2024-02-04T12:06:50;97681.06;;;8.76;100.00
57594;BME280;43423;46.510;6.686;2024-02-04T12:09:19;97695.38;;;8.96;100.00
57594;BME280;43423;46.510;6.686;2024-02-04T12:11:45;97692.81;;;8.63;100.00
57594;BME280;43423;46.510;6.686;2024-02-04T12:14:11;97694.84;;;9.01;100.00
57594;BME280;43423;46.510;6.686;2024-02-04T12:16:38;97686.63;;;9.01;100.00
57594;BME280;43423;46.510;6.686;2024-02-04T12:19:04;97685.28;;;9.06;100.00
57594;BME280;43423;46.510;6.686;2024-02-04T12:21:30;97688.25;;;9.49;99.02
57594;BME280;43423;46.510;6.686;2024-02-04T12:23:57;97688.88;;;10.14;96.45
57594;BME280;43423;46.510;6.686;2024-02-04T12:26:23;97682.88;;;10.50;94.33
57594;BME280;43423;46.510;6.686;2024-02-04T12:28:52;97689.09;;;10.41;92.55
57594;BME280;43423;46.510;6.686;2024-02-04T12:31:25;97683.38;;;10.79;90.12
57594;BME280;43423;46.510;6.686;2024-02-04T12:33:58;97681.09;;;10.56;89.84
57594;BME280;43423;46.510;6.686;2024-02-04T12:36:28;97684.97;;;10.89;89.52
57594;BME280;43423;46.510;6.686;2024-02-04T12:38:59;97685.47;;;11.28;87.23
57594;BME280;43423;46.510;6.686;2024-02-04T12:41:27;97687.75;;;11.79;84.44
57594;BME280;43423;46.510;6.686;2024-02-04T12:43:54;97677.91;;;11.69;84.08
57594;BME280;43423;46.510;6.686;2024-02-04T12:46:21;97683.53;;;12.24;83.64
57594;BME280;43423;46.510;6.686;2024-02-04T12:48:51;97683.50;;;12.61;80.61
57594;BME280;43423;46.510;6.686;2024-02-04T12:51:31;97681.69;;;12.57;79.99
57594;BME280;43423;46.510;6.686;2024-02-04T12:54:09;97682.09;;;12.83;78.14
57594;BME280;43423;46.510;6.686;2024-02-04T12:59:11;97683.13;;;13.04;78.14
57594;BME280;43423;46.510;6.686;2024-02-04T13:01:37;97673.97;;;12.80;78.15
57594;BME280;43423;46.510;6.686;2024-02-04T13:04:03;97678.84;;;12.94;78.46
57594;BME280;43423;46.510;6.686;2024-02-04T13:06:30;97669.31;;;13.04;77.31
57594;BME280;43423;46.510;6.686;2024-02-04T13:08:56;97675.84;;;13.25;74.51
57594;BME280;43423;46.510;6.686;2024-02-04T13:11:25;97673.41;;;13.27;76.04
57594;BME280;43423;46.510;6.686;2024-02-04T13:13:51;97674.63;;;13.83;73.16
57594;BME280;43423;46.510;6.686;2024-02-04T13:16:17;97661.22;;;14.30;70.89
57594;BME280;43423;46.510;6.686;2024-02-04T13:18:52;97661.78;;;14.34;60.98
57594;BME280;43423;46.510;6.686;2024-02-04T13:21:18;97653.00;;;14.74;57.91